X  Fermer Données météorologiques d'aviation de Metar        LGTS Thessaloniki Macedonia International
Température
57°F Température
55°F Point de rosée
94% Humidité



Vent
3 MPH
6 KM/H
1 M/S
3 KTS



-1°
VRB
Conditions actuelles

Mostly Cloudy with Drizzle Plutôt nuageux , Bruine
Pression 1015 (hPa) - 29.97 (inHg)
Visibilité 6 (mile) - 10 (km)
Aéroport
Code de l'aéroport LGTS

Emplacement: Thessaloniki Macedonia International
Distance: 85 (mi)

Metar:
METAR LGTS 251220Z VRB03KT 9999 -DZ FEW010 BKN025 14/13 Q1015 NOSIG

Temps: 25-02-2024 14:20 EET